Schedule Details


Flight Number: CTN485
Departure: Arlanda (ESSA) at 18:10
Arrival: Franjo Tudman (LDZA) at 20:45
Route: TRS?M607?MALOX?P31?GOVEN?UP31?KOBUS?UM725?HDO?M725?VOZ?Z21?PISAM?DCT?PUBEG?DCT?PETOV

Weather Information
ESSA 092250Z 30007KT CAVOK 04/M06 Q1020 R01L/09//95 R01R/09//95 R08/09//95 NOSIG
LDZA 092300Z 25004KT CAVOK 05/M00 Q1022 NOSIG
Schedule Frequency

Route Map